createdAt,value
2019-04-27T00:08:35.226Z,13.00
2019-04-27T00:18:58.506Z,13.10
2019-04-27T00:29:04.190Z,13.10
2019-04-27T00:39:18.661Z,13.10
2019-04-27T00:49:25.323Z,13.20
2019-04-27T00:59:53.065Z,13.30
2019-04-27T01:09:58.879Z,13.30
2019-04-27T01:20:04.414Z,13.40
2019-04-27T01:30:20.023Z,13.40
2019-04-27T01:40:25.649Z,13.50
2019-04-27T01:50:31.088Z,13.60
2019-04-27T02:01:10.503Z,13.50
2019-04-27T02:11:18.506Z,13.50
2019-04-27T02:21:23.674Z,13.50
2019-04-27T02:31:36.933Z,13.40
2019-04-27T02:41:42.537Z,13.50
2019-04-27T02:52:05.454Z,13.60
2019-04-27T03:02:25.943Z,13.60
2019-04-27T03:12:33.774Z,13.60
2019-04-27T03:22:41.293Z,13.50
2019-04-27T03:32:51.378Z,13.40
2019-04-27T03:42:55.287Z,13.40
2019-04-27T03:53:23.242Z,13.50
2019-04-27T04:03:29.696Z,13.50
2019-04-27T04:13:39.806Z,13.50
2019-04-27T04:23:45.198Z,13.50
2019-04-27T04:33:50.469Z,13.50
2019-04-27T04:44:09.810Z,13.60
2019-04-27T04:54:14.810Z,13.70
2019-04-27T05:04:20.111Z,13.70
2019-04-27T05:14:25.463Z,13.90
2019-04-27T05:24:30.751Z,13.90
2019-04-27T05:34:36.042Z,14.10
2019-04-27T05:45:10.382Z,14.20
2019-04-27T05:55:15.750Z,14.20
2019-04-27T06:05:22.696Z,14.40
2019-04-27T06:15:29.996Z,14.60
2019-04-27T06:25:35.509Z,14.70
2019-04-27T06:35:40.840Z,14.80
2019-04-27T06:45:48.761Z,15.00
2019-04-27T06:55:54.391Z,15.20
2019-04-27T07:05:59.702Z,15.40
2019-04-27T07:16:05.211Z,15.60
2019-04-27T07:26:10.588Z,15.80
2019-04-27T07:36:15.993Z,15.90
2019-04-27T07:46:21.586Z,16.00
2019-04-27T07:56:29.053Z,16.20
2019-04-27T08:06:34.206Z,16.30
2019-04-27T08:16:39.580Z,16.40
2019-04-27T08:26:54.954Z,16.60
2019-04-27T08:37:00.775Z,16.70
2019-04-27T08:47:06.256Z,16.80
2019-04-27T08:57:11.563Z,16.90
2019-04-27T09:07:34.892Z,17.00
2019-04-27T09:17:45.466Z,17.40
2019-04-27T09:27:51.033Z,17.70
2019-04-27T09:37:56.417Z,17.70
2019-04-27T09:48:02.055Z,18.00
2019-04-27T09:58:07.446Z,18.20
2019-04-27T10:08:12.730Z,18.20
2019-04-27T10:18:18.418Z,18.50
2019-04-27T10:28:23.862Z,18.60
2019-04-27T10:38:29.191Z,18.80
2019-04-27T10:48:36.617Z,18.90
2019-04-27T10:58:41.911Z,19.00
2019-04-27T11:08:48.338Z,19.40
2019-04-27T11:18:53.824Z,19.40
2019-04-27T11:28:59.314Z,19.30
2019-04-27T11:39:11.313Z,19.30
2019-04-27T11:49:16.847Z,18.70
2019-04-27T11:59:22.155Z,17.30
2019-04-27T12:09:27.665Z,16.60
2019-04-27T12:19:32.959Z,15.70
2019-04-27T12:29:56.078Z,15.50
2019-04-27T12:40:01.349Z,15.50
2019-04-27T12:50:08.116Z,15.90
2019-04-27T13:00:19.219Z,16.20
2019-04-27T13:10:24.811Z,16.60
2019-04-27T13:20:30.406Z,16.90
2019-04-27T13:30:35.940Z,17.00
2019-04-27T13:40:41.680Z,17.50
2019-04-27T13:50:49.606Z,19.20
2019-04-27T14:00:54.937Z,20.40
2019-04-27T14:11:01.277Z,20.80
2019-04-27T14:21:06.765Z,21.30
2019-04-27T14:31:12.388Z,21.10
2019-04-27T14:41:19.246Z,20.80
2019-04-27T14:51:24.691Z,20.00
2019-04-27T15:01:30.077Z,19.70
2019-04-27T15:11:35.390Z,19.50
2019-04-27T15:21:50.116Z,19.00
2019-04-27T15:31:55.955Z,18.80
2019-04-27T15:42:08.334Z,18.30
2019-04-27T15:52:10.604Z,18.20
2019-04-27T16:02:16.384Z,18.20
2019-04-27T16:12:21.819Z,18.30
2019-04-27T16:22:27.800Z,18.10
2019-04-27T16:32:33.542Z,17.90
2019-04-27T16:42:40.714Z,17.50
2019-04-27T16:52:50.760Z,17.50
2019-04-27T17:02:54.924Z,17.50
2019-04-27T17:12:59.966Z,17.50
2019-04-27T17:23:05.372Z,17.20
2019-04-27T17:33:23.306Z,17.00
2019-04-27T17:43:28.927Z,17.00
2019-04-27T17:53:34.343Z,16.80
2019-04-27T18:03:39.646Z,16.50
2019-04-27T18:13:44.930Z,16.30
2019-04-27T18:23:55.136Z,16.20
2019-04-27T18:34:00.735Z,16.20
2019-04-27T18:44:06.251Z,16.10
2019-04-27T18:54:11.986Z,16.10
2019-04-27T19:04:18.927Z,15.90
2019-04-27T19:14:24.486Z,15.10
2019-04-27T19:24:29.760Z,14.50
2019-04-27T19:34:35.050Z,14.00
2019-04-27T19:44:40.791Z,13.50
2019-04-27T19:54:46.283Z,13.40
2019-04-27T20:04:58.483Z,13.30
2019-04-27T20:15:04.557Z,13.30
2019-04-27T20:25:11.244Z,13.10
2019-04-27T20:35:16.749Z,13.10
2019-04-27T20:45:22.358Z,13.00
2019-04-27T20:55:28.152Z,13.00
2019-04-27T21:05:44.969Z,12.80
2019-04-27T21:15:50.927Z,12.90
2019-04-27T21:25:56.423Z,12.90
2019-04-27T21:36:01.803Z,12.70
2019-04-27T21:46:07.108Z,12.50
2019-04-27T21:56:12.768Z,12.50
2019-04-27T22:06:18.382Z,12.40
2019-04-27T22:16:23.931Z,12.30
2019-04-27T22:26:29.196Z,12.30
2019-04-27T22:36:34.606Z,12.30
2019-04-27T22:46:41.791Z,12.30
2019-04-27T22:56:47.658Z,12.30
2019-04-27T23:06:53.370Z,12.20
2019-04-27T23:17:04.176Z,12.20
2019-04-27T23:27:11.086Z,12.20
2019-04-27T23:37:16.874Z,12.20
2019-04-27T23:47:22.429Z,12.00
2019-04-27T23:57:27.803Z,12.00
